sensor_id;sensor_type;location;lat;lon;timestamp;pressure;altitude;pressure_sealevel;temperature
5571;BMP180;2808;51.240;6.794;2023-06-14T00:02:15;100918.00;;;20.80
5571;BMP180;2808;51.240;6.794;2023-06-14T00:04:44;100918.00;;;20.70
5571;BMP180;2808;51.240;6.794;2023-06-14T00:07:38;100928.00;;;20.60
5571;BMP180;2808;51.240;6.794;2023-06-14T00:10:23;100951.00;;;20.50
5571;BMP180;2808;51.240;6.794;2023-06-14T00:13:00;100929.00;;;20.30
5571;BMP180;2808;51.240;6.794;2023-06-14T00:15:30;100932.00;;;20.30
5571;BMP180;2808;51.240;6.794;2023-06-14T00:18:19;100926.00;;;20.30
5571;BMP180;2808;51.240;6.794;2023-06-14T00:20:53;100929.00;;;20.20
5571;BMP180;2808;51.240;6.794;2023-06-14T00:23:20;100934.00;;;20.30
5571;BMP180;2808;51.240;6.794;2023-06-14T00:25:51;100933.00;;;20.30
5571;BMP180;2808;51.240;6.794;2023-06-14T00:28:24;100936.00;;;20.30
5571;BMP180;2808;51.240;6.794;2023-06-14T00:30:55;100944.00;;;20.30
5571;BMP180;2808;51.240;6.794;2023-06-14T00:33:24;100938.00;;;20.30
5571;BMP180;2808;51.240;6.794;2023-06-14T00:35:52;100935.00;;;20.30
5571;BMP180;2808;51.240;6.794;2023-06-14T00:40:29;100938.00;;;20.30
5571;BMP180;2808;51.240;6.794;2023-06-14T00:41:42;100940.00;;;20.20
5571;BMP180;2808;51.240;6.794;2023-06-14T00:44:12;100937.00;;;20.20
5571;BMP180;2808;51.240;6.794;2023-06-14T00:46:44;100947.00;;;20.20
5571;BMP180;2808;51.240;6.794;2023-06-14T00:49:38;100943.00;;;20.10
5571;BMP180;2808;51.240;6.794;2023-06-14T00:52:09;100940.00;;;20.10
5571;BMP180;2808;51.240;6.794;2023-06-14T00:54:39;100946.00;;;20.10
5571;BMP180;2808;51.240;6.794;2023-06-14T00:57:16;100939.00;;;20.10
5571;BMP180;2808;51.240;6.794;2023-06-14T00:59:45;100935.00;;;20.00
5571;BMP180;2808;51.240;6.794;2023-06-14T01:02:13;100944.00;;;20.00
5571;BMP180;2808;51.240;6.794;2023-06-14T01:04:45;100949.00;;;19.90
5571;BMP180;2808;51.240;6.794;2023-06-14T01:07:22;100950.00;;;19.90
5571;BMP180;2808;51.240;6.794;2023-06-14T01:10:03;100951.00;;;19.80
5571;BMP180;2808;51.240;6.794;2023-06-14T01:12:39;100950.00;;;19.70
5571;BMP180;2808;51.240;6.794;2023-06-14T01:15:10;100949.00;;;19.60
5571;BMP180;2808;51.240;6.794;2023-06-14T01:17:45;100955.00;;;19.60
5571;BMP180;2808;51.240;6.794;2023-06-14T01:20:16;100957.00;;;19.60
5571;BMP180;2808;51.240;6.794;2023-06-14T01:22:52;100960.00;;;19.50
5571;BMP180;2808;51.240;6.794;2023-06-14T01:25:20;100963.00;;;19.50
5571;BMP180;2808;51.240;6.794;2023-06-14T01:27:55;100955.00;;;19.40
5571;BMP180;2808;51.240;6.794;2023-06-14T01:30:25;100948.00;;;19.30
5571;BMP180;2808;51.240;6.794;2023-06-14T01:32:54;100948.00;;;19.20
5571;BMP180;2808;51.240;6.794;2023-06-14T01:35:22;100957.00;;;19.20
5571;BMP180;2808;51.240;6.794;2023-06-14T01:37:52;100951.00;;;19.20
5571;BMP180;2808;51.240;6.794;2023-06-14T01:40:21;100962.00;;;19.20
5571;BMP180;2808;51.240;6.794;2023-06-14T01:42:50;100962.00;;;19.20
5571;BMP180;2808;51.240;6.794;2023-06-14T01:45:19;100949.00;;;19.10
5571;BMP180;2808;51.240;6.794;2023-06-14T01:47:47;100948.00;;;19.10
5571;BMP180;2808;51.240;6.794;2023-06-14T01:50:16;100945.00;;;19.10
5571;BMP180;2808;51.240;6.794;2023-06-14T01:52:45;100954.00;;;19.10
5571;BMP180;2808;51.240;6.794;2023-06-14T01:55:14;100956.00;;;19.10
5571;BMP180;2808;51.240;6.794;2023-06-14T01:57:43;100959.00;;;19.00
5571;BMP180;2808;51.240;6.794;2023-06-14T02:00:12;100951.00;;;19.10
5571;BMP180;2808;51.240;6.794;2023-06-14T02:02:40;100954.00;;;19.10
5571;BMP180;2808;51.240;6.794;2023-06-14T02:05:11;100953.00;;;19.10
5571;BMP180;2808;51.240;6.794;2023-06-14T02:07:42;100948.00;;;19.00
5571;BMP180;2808;51.240;6.794;2023-06-14T02:10:10;100950.00;;;19.00
5571;BMP180;2808;51.240;6.794;2023-06-14T02:12:41;100953.00;;;19.00
5571;BMP180;2808;51.240;6.794;2023-06-14T02:15:17;100950.00;;;19.00
5571;BMP180;2808;51.240;6.794;2023-06-14T02:17:57;100949.00;;;18.90
5571;BMP180;2808;51.240;6.794;2023-06-14T02:20:52;100954.00;;;18.90
5571;BMP180;2808;51.240;6.794;2023-06-14T02:23:36;100958.00;;;18.90
5571;BMP180;2808;51.240;6.794;2023-06-14T02:26:07;100951.00;;;18.90
5571;BMP180;2808;51.240;6.794;2023-06-14T02:28:36;100955.00;;;18.90
5571;BMP180;2808;51.240;6.794;2023-06-14T02:31:08;100948.00;;;18.90
5571;BMP180;2808;51.240;6.794;2023-06-14T02:33:46;100948.00;;;18.90
5571;BMP180;2808;51.240;6.794;2023-06-14T02:36:15;100948.00;;;18.90
5571;BMP180;2808;51.240;6.794;2023-06-14T02:38:51;100959.00;;;18.80
5571;BMP180;2808;51.240;6.794;2023-06-14T02:44:51;100958.00;;;18.80
5571;BMP180;2808;51.240;6.794;2023-06-14T02:47:34;100957.00;;;18.80
5571;BMP180;2808;51.240;6.794;2023-06-14T02:50:25;100956.00;;;18.70
5571;BMP180;2808;51.240;6.794;2023-06-14T02:53:09;100965.00;;;18.70
5571;BMP180;2808;51.240;6.794;2023-06-14T02:56:02;100965.00;;;18.70
5571;BMP180;2808;51.240;6.794;2023-06-14T02:58:47;100969.00;;;18.80
5571;BMP180;2808;51.240;6.794;2023-06-14T03:01:24;100972.00;;;18.70
5571;BMP180;2808;51.240;6.794;2023-06-14T03:04:02;100974.00;;;18.70
5571;BMP180;2808;51.240;6.794;2023-06-14T03:06:58;100985.00;;;18.70
5571;BMP180;2808;51.240;6.794;2023-06-14T03:09:51;100982.00;;;18.60
5571;BMP180;2808;51.240;6.794;2023-06-14T03:13:01;100988.00;;;18.60
5571;BMP180;2808;51.240;6.794;2023-06-14T03:16:08;100990.00;;;18.60
5571;BMP180;2808;51.240;6.794;2023-06-14T03:21:51;100989.00;;;18.60
5571;BMP180;2808;51.240;6.794;2023-06-14T03:28:09;100997.00;;;18.50
5571;BMP180;2808;51.240;6.794;2023-06-14T03:30:45;101004.00;;;18.60
5571;BMP180;2808;51.240;6.794;2023-06-14T03:33:17;101006.00;;;18.60
5571;BMP180;2808;51.240;6.794;2023-06-14T03:35:47;101008.00;;;18.60
5571;BMP180;2808;51.240;6.794;2023-06-14T03:38:26;101001.00;;;18.60
5571;BMP180;2808;51.240;6.794;2023-06-14T03:40:54;101010.00;;;18.70
5571;BMP180;2808;51.240;6.794;2023-06-14T03:43:24;101012.00;;;18.80
5571;BMP180;2808;51.240;6.794;2023-06-14T03:45:56;101014.00;;;18.80
5571;BMP180;2808;51.240;6.794;2023-06-14T03:48:37;101013.00;;;18.80
5571;BMP180;2808;51.240;6.794;2023-06-14T03:51:23;101012.00;;;18.80
5571;BMP180;2808;51.240;6.794;2023-06-14T03:54:03;101017.00;;;18.80
5571;BMP180;2808;51.240;6.794;2023-06-14T03:56:37;101018.00;;;18.90
5571;BMP180;2808;51.240;6.794;2023-06-14T03:59:07;101021.00;;;18.90
5571;BMP180;2808;51.240;6.794;2023-06-14T04:01:43;101014.00;;;18.90
5571;BMP180;2808;51.240;6.794;2023-06-14T04:04:22;101019.00;;;19.00
5571;BMP180;2808;51.240;6.794;2023-06-14T04:07:13;101026.00;;;19.10
5571;BMP180;2808;51.240;6.794;2023-06-14T04:10:00;101027.00;;;19.20
5571;BMP180;2808;51.240;6.794;2023-06-14T04:12:30;101025.00;;;19.30
5571;BMP180;2808;51.240;6.794;2023-06-14T04:14:57;101024.00;;;19.60
5571;BMP180;2808;51.240;6.794;2023-06-14T04:17:26;101030.00;;;19.90
5571;BMP180;2808;51.240;6.794;2023-06-14T04:19:53;101026.00;;;20.30
5571;BMP180;2808;51.240;6.794;2023-06-14T04:22:22;101029.00;;;20.50
5571;BMP180;2808;51.240;6.794;2023-06-14T04:24:50;101046.00;;;20.80
5571;BMP180;2808;51.240;6.794;2023-06-14T04:27:18;101045.00;;;21.00
5571;BMP180;2808;51.240;6.794;2023-06-14T04:29:47;101043.00;;;21.20
5571;BMP180;2808;51.240;6.794;2023-06-14T04:32:19;101047.00;;;21.40
5571;BMP180;2808;51.240;6.794;2023-06-14T04:34:47;101047.00;;;21.60
5571;BMP180;2808;51.240;6.794;2023-06-14T04:37:15;101052.00;;;21.60
5571;BMP180;2808;51.240;6.794;2023-06-14T04:39:48;101052.00;;;21.70
5571;BMP180;2808;51.240;6.794;2023-06-14T04:42:17;101063.00;;;22.00
5571;BMP180;2808;51.240;6.794;2023-06-14T04:44:53;101053.00;;;22.10
5571;BMP180;2808;51.240;6.794;2023-06-14T04:47:26;101053.00;;;22.60
5571;BMP180;2808;51.240;6.794;2023-06-14T04:52:57;101060.00;;;23.40
5571;BMP180;2808;51.240;6.794;2023-06-14T04:55:27;101065.00;;;23.60
5571;BMP180;2808;51.240;6.794;2023-06-14T04:57:56;101062.00;;;24.20
5571;BMP180;2808;51.240;6.794;2023-06-14T05:00:24;101058.00;;;25.00
5571;BMP180;2808;51.240;6.794;2023-06-14T05:02:51;101078.00;;;25.50
5571;BMP180;2808;51.240;6.794;2023-06-14T05:05:19;101067.00;;;25.80
5571;BMP180;2808;51.240;6.794;2023-06-14T05:07:46;101077.00;;;26.40
5571;BMP180;2808;51.240;6.794;2023-06-14T05:10:14;101077.00;;;26.90
5571;BMP180;2808;51.240;6.794;2023-06-14T05:12:42;101081.00;;;27.40
5571;BMP180;2808;51.240;6.794;2023-06-14T05:15:10;101078.00;;;27.50
5571;BMP180;2808;51.240;6.794;2023-06-14T05:17:38;101078.00;;;27.60
5571;BMP180;2808;51.240;6.794;2023-06-14T05:20:07;101090.00;;;28.00
5571;BMP180;2808;51.240;6.794;2023-06-14T05:22:36;101080.00;;;27.80
5571;BMP180;2808;51.240;6.794;2023-06-14T05:25:06;101084.00;;;27.90
5571;BMP180;2808;51.240;6.794;2023-06-14T05:27:34;101079.00;;;28.10
5571;BMP180;2808;51.240;6.794;2023-06-14T05:30:05;101080.00;;;28.10
5571;BMP180;2808;51.240;6.794;2023-06-14T05:32:33;101083.00;;;27.80
5571;BMP180;2808;51.240;6.794;2023-06-14T05:35:00;101085.00;;;28.40
5571;BMP180;2808;51.240;6.794;2023-06-14T05:37:35;101087.00;;;28.70
5571;BMP180;2808;51.240;6.794;2023-06-14T05:40:06;101087.00;;;28.70
5571;BMP180;2808;51.240;6.794;2023-06-14T05:42:35;101095.00;;;28.70
5571;BMP180;2808;51.240;6.794;2023-06-14T05:45:04;101086.00;;;28.90
5571;BMP180;2808;51.240;6.794;2023-06-14T05:47:33;101105.00;;;28.90
5571;BMP180;2808;51.240;6.794;2023-06-14T05:50:01;101104.00;;;29.00
5571;BMP180;2808;51.240;6.794;2023-06-14T05:52:29;101106.00;;;28.90
5571;BMP180;2808;51.240;6.794;2023-06-14T05:54:57;101112.00;;;28.90
5571;BMP180;2808;51.240;6.794;2023-06-14T05:57:25;101115.00;;;29.10
5571;BMP180;2808;51.240;6.794;2023-06-14T05:59:52;101113.00;;;29.20
5571;BMP180;2808;51.240;6.794;2023-06-14T06:02:22;101118.00;;;29.10
5571;BMP180;2808;51.240;6.794;2023-06-14T06:04:50;101121.00;;;29.10
5571;BMP180;2808;51.240;6.794;2023-06-14T06:07:18;101119.00;;;28.40
5571;BMP180;2808;51.240;6.794;2023-06-14T06:09:45;101126.00;;;28.30
5571;BMP180;2808;51.240;6.794;2023-06-14T06:12:13;101130.00;;;28.50
5571;BMP180;2808;51.240;6.794;2023-06-14T06:14:40;101128.00;;;28.70
5571;BMP180;2808;51.240;6.794;2023-06-14T06:17:07;101131.00;;;28.80
5571;BMP180;2808;51.240;6.794;2023-06-14T06:19:36;101124.00;;;28.90
5571;BMP180;2808;51.240;6.794;2023-06-14T06:22:04;101134.00;;;28.50
5571;BMP180;2808;51.240;6.794;2023-06-14T06:24:32;101133.00;;;28.50
5571;BMP180;2808;51.240;6.794;2023-06-14T06:26:59;101128.00;;;28.80
5571;BMP180;2808;51.240;6.794;2023-06-14T06:29:30;101132.00;;;28.50
5571;BMP180;2808;51.240;6.794;2023-06-14T06:31:57;101133.00;;;27.30
5571;BMP180;2808;51.240;6.794;2023-06-14T06:34:25;101132.00;;;27.60
5571;BMP180;2808;51.240;6.794;2023-06-14T06:36:53;101138.00;;;27.90
5571;BMP180;2808;51.240;6.794;2023-06-14T06:39:21;101147.00;;;27.10
5571;BMP180;2808;51.240;6.794;2023-06-14T06:41:49;101139.00;;;26.60
5571;BMP180;2808;51.240;6.794;2023-06-14T06:44:24;101142.00;;;26.70
5571;BMP180;2808;51.240;6.794;2023-06-14T06:46:51;101146.00;;;27.40
5571;BMP180;2808;51.240;6.794;2023-06-14T06:49:21;101152.00;;;28.00
5571;BMP180;2808;51.240;6.794;2023-06-14T06:52:03;101152.00;;;27.60
5571;BMP180;2808;51.240;6.794;2023-06-14T06:54:32;101159.00;;;27.90
5571;BMP180;2808;51.240;6.794;2023-06-14T06:56:59;101163.00;;;27.90
5571;BMP180;2808;51.240;6.794;2023-06-14T06:59:30;101161.00;;;27.00
5571;BMP180;2808;51.240;6.794;2023-06-14T07:01:57;101169.00;;;27.30
5571;BMP180;2808;51.240;6.794;2023-06-14T07:04:25;101168.00;;;27.10
5571;BMP180;2808;51.240;6.794;2023-06-14T07:06:52;101163.00;;;26.60
5571;BMP180;2808;51.240;6.794;2023-06-14T07:09:24;101165.00;;;26.80
5571;BMP180;2808;51.240;6.794;2023-06-14T07:11:52;101171.00;;;27.40
5571;BMP180;2808;51.240;6.794;2023-06-14T07:14:19;101165.00;;;27.50
5571;BMP180;2808;51.240;6.794;2023-06-14T07:16:49;101175.00;;;27.20
5571;BMP180;2808;51.240;6.794;2023-06-14T07:19:16;101173.00;;;26.50
5571;BMP180;2808;51.240;6.794;2023-06-14T07:21:44;101183.00;;;26.50
5571;BMP180;2808;51.240;6.794;2023-06-14T07:24:11;101180.00;;;26.60
5571;BMP180;2808;51.240;6.794;2023-06-14T07:26:40;101183.00;;;26.20
5571;BMP180;2808;51.240;6.794;2023-06-14T07:29:33;101175.00;;;26.20
5571;BMP180;2808;51.240;6.794;2023-06-14T07:32:17;101183.00;;;26.60
5571;BMP180;2808;51.240;6.794;2023-06-14T07:34:46;101175.00;;;26.50
5571;BMP180;2808;51.240;6.794;2023-06-14T07:37:13;101184.00;;;26.20
5571;BMP180;2808;51.240;6.794;2023-06-14T07:39:41;101183.00;;;25.90
5571;BMP180;2808;51.240;6.794;2023-06-14T07:42:11;101191.00;;;26.30
5571;BMP180;2808;51.240;6.794;2023-06-14T07:44:39;101183.00;;;26.10
5571;BMP180;2808;51.240;6.794;2023-06-14T07:47:06;101172.00;;;26.30
5571;BMP180;2808;51.240;6.794;2023-06-14T07:49:34;101183.00;;;26.20
5571;BMP180;2808;51.240;6.794;2023-06-14T07:52:16;101173.00;;;26.40
5571;BMP180;2808;51.240;6.794;2023-06-14T07:54:44;101176.00;;;26.50
5571;BMP180;2808;51.240;6.794;2023-06-14T07:57:13;101182.00;;;26.10
5571;BMP180;2808;51.240;6.794;2023-06-14T07:59:40;101174.00;;;25.80
5571;BMP180;2808;51.240;6.794;2023-06-14T08:02:09;101194.00;;;26.10
5571;BMP180;2808;51.240;6.794;2023-06-14T08:04:36;101182.00;;;25.90
5571;BMP180;2808;51.240;6.794;2023-06-14T08:07:10;101190.00;;;26.00
5571;BMP180;2808;51.240;6.794;2023-06-14T08:09:39;101175.00;;;25.80
5571;BMP180;2808;51.240;6.794;2023-06-14T08:12:08;101191.00;;;25.90
5571;BMP180;2808;51.240;6.794;2023-06-14T08:14:39;101191.00;;;25.90
5571;BMP180;2808;51.240;6.794;2023-06-14T08:17:08;101185.00;;;25.80
5571;BMP180;2808;51.240;6.794;2023-06-14T08:19:36;101192.00;;;25.90
5571;BMP180;2808;51.240;6.794;2023-06-14T08:22:04;101187.00;;;25.70
5571;BMP180;2808;51.240;6.794;2023-06-14T08:24:40;101178.00;;;25.90
5571;BMP180;2808;51.240;6.794;2023-06-14T08:27:14;101188.00;;;26.20
5571;BMP180;2808;51.240;6.794;2023-06-14T08:29:51;101185.00;;;25.90
5571;BMP180;2808;51.240;6.794;2023-06-14T08:32:19;101183.00;;;26.00
5571;BMP180;2808;51.240;6.794;2023-06-14T08:34:47;101173.00;;;26.10
5571;BMP180;2808;51.240;6.794;2023-06-14T08:37:14;101189.00;;;26.60
5571;BMP180;2808;51.240;6.794;2023-06-14T08:39:42;101191.00;;;26.30
5571;BMP180;2808;51.240;6.794;2023-06-14T08:42:16;101186.00;;;26.10
5571;BMP180;2808;51.240;6.794;2023-06-14T08:44:45;101189.00;;;25.70
5571;BMP180;2808;51.240;6.794;2023-06-14T08:47:16;101187.00;;;25.30
5571;BMP180;2808;51.240;6.794;2023-06-14T08:49:48;101179.00;;;25.50
5571;BMP180;2808;51.240;6.794;2023-06-14T08:52:19;101186.00;;;25.50
5571;BMP180;2808;51.240;6.794;2023-06-14T08:54:47;101185.00;;;25.40
5571;BMP180;2808;51.240;6.794;2023-06-14T08:57:15;101185.00;;;25.30
5571;BMP180;2808;51.240;6.794;2023-06-14T08:59:47;101200.00;;;25.20
5571;BMP180;2808;51.240;6.794;2023-06-14T09:02:20;101189.00;;;25.20
5571;BMP180;2808;51.240;6.794;2023-06-14T09:04:50;101179.00;;;24.90
5571;BMP180;2808;51.240;6.794;2023-06-14T09:07:18;101192.00;;;24.60
5571;BMP180;2808;51.240;6.794;2023-06-14T09:09:45;101182.00;;;24.10
5571;BMP180;2808;51.240;6.794;2023-06-14T09:12:13;101186.00;;;24.10
5571;BMP180;2808;51.240;6.794;2023-06-14T09:14:50;101190.00;;;24.20
5571;BMP180;2808;51.240;6.794;2023-06-14T09:17:19;101193.00;;;24.40
5571;BMP180;2808;51.240;6.794;2023-06-14T09:19:48;101190.00;;;24.40
5571;BMP180;2808;51.240;6.794;2023-06-14T09:22:17;101203.00;;;24.20
5571;BMP180;2808;51.240;6.794;2023-06-14T09:24:44;101191.00;;;24.40
5571;BMP180;2808;51.240;6.794;2023-06-14T09:27:15;101206.00;;;24.30
5571;BMP180;2808;51.240;6.794;2023-06-14T09:29:42;101206.00;;;24.20
5571;BMP180;2808;51.240;6.794;2023-06-14T09:32:10;101196.00;;;24.10
5571;BMP180;2808;51.240;6.794;2023-06-14T09:34:39;101220.00;;;24.10
5571;BMP180;2808;51.240;6.794;2023-06-14T09:37:07;101200.00;;;24.00
5571;BMP180;2808;51.240;6.794;2023-06-14T09:39:34;101200.00;;;24.10
5571;BMP180;2808;51.240;6.794;2023-06-14T09:42:02;101208.00;;;24.20
5571;BMP180;2808;51.240;6.794;2023-06-14T09:44:44;101207.00;;;24.10
5571;BMP180;2808;51.240;6.794;2023-06-14T09:47:12;101226.00;;;23.80
5571;BMP180;2808;51.240;6.794;2023-06-14T09:49:44;101212.00;;;23.20
5571;BMP180;2808;51.240;6.794;2023-06-14T09:52:17;101217.00;;;23.20
5571;BMP180;2808;51.240;6.794;2023-06-14T09:54:45;101221.00;;;23.30
5571;BMP180;2808;51.240;6.794;2023-06-14T09:57:15;101217.00;;;23.40
5571;BMP180;2808;51.240;6.794;2023-06-14T09:59:44;101220.00;;;23.30
5571;BMP180;2808;51.240;6.794;2023-06-14T10:02:17;101222.00;;;23.30
5571;BMP180;2808;51.240;6.794;2023-06-14T10:04:55;101226.00;;;23.30
5571;BMP180;2808;51.240;6.794;2023-06-14T10:07:27;101227.00;;;23.30
5571;BMP180;2808;51.240;6.794;2023-06-14T10:09:59;101222.00;;;23.30
5571;BMP180;2808;51.240;6.794;2023-06-14T10:12:31;101219.00;;;23.40
5571;BMP180;2808;51.240;6.794;2023-06-14T10:15:01;101218.00;;;23.50
5571;BMP180;2808;51.240;6.794;2023-06-14T10:17:47;101205.00;;;23.30
5571;BMP180;2808;51.240;6.794;2023-06-14T10:20:25;101213.00;;;23.30
5571;BMP180;2808;51.240;6.794;2023-06-14T10:23:02;101223.00;;;23.10
5571;BMP180;2808;51.240;6.794;2023-06-14T10:25:31;101204.00;;;23.10
5571;BMP180;2808;51.240;6.794;2023-06-14T10:28:16;101212.00;;;23.10
5571;BMP180;2808;51.240;6.794;2023-06-14T10:31:07;101204.00;;;23.20
5571;BMP180;2808;51.240;6.794;2023-06-14T10:33:38;101205.00;;;23.30
5571;BMP180;2808;51.240;6.794;2023-06-14T10:36:27;101213.00;;;23.50
5571;BMP180;2808;51.240;6.794;2023-06-14T10:39:03;101206.00;;;23.30
5571;BMP180;2808;51.240;6.794;2023-06-14T10:41:34;101201.00;;;23.30
5571;BMP180;2808;51.240;6.794;2023-06-14T10:44:33;101195.00;;;23.40
5571;BMP180;2808;51.240;6.794;2023-06-14T10:47:08;101192.00;;;23.70
5571;BMP180;2808;51.240;6.794;2023-06-14T10:49:42;101204.00;;;23.50
5571;BMP180;2808;51.240;6.794;2023-06-14T10:52:13;101205.00;;;23.20
5571;BMP180;2808;51.240;6.794;2023-06-14T10:55:01;101200.00;;;22.90
5571;BMP180;2808;51.240;6.794;2023-06-14T10:57:30;101207.00;;;22.80
5571;BMP180;2808;51.240;6.794;2023-06-14T10:59:58;101197.00;;;22.70
5571;BMP180;2808;51.240;6.794;2023-06-14T11:22:56;101198.00;;;23.30
5571;BMP180;2808;51.240;6.794;2023-06-14T11:25:24;101196.00;;;23.20
5571;BMP180;2808;51.240;6.794;2023-06-14T11:27:52;101178.00;;;23.10
5571;BMP180;2808;51.240;6.794;2023-06-14T11:30:59;101173.00;;;23.30
5571;BMP180;2808;51.240;6.794;2023-06-14T11:34:13;101195.00;;;23.50
5571;BMP180;2808;51.240;6.794;2023-06-14T11:57:55;101166.00;;;23.50
5571;BMP180;2808;51.240;6.794;2023-06-14T12:00:39;101166.00;;;23.60
5571;BMP180;2808;51.240;6.794;2023-06-14T12:03:28;101171.00;;;23.50
5571;BMP180;2808;51.240;6.794;2023-06-14T12:06:08;101156.00;;;23.50
5571;BMP180;2808;51.240;6.794;2023-06-14T12:08:36;101162.00;;;23.60
5571;BMP180;2808;51.240;6.794;2023-06-14T12:11:06;101165.00;;;23.70
5571;BMP180;2808;51.240;6.794;2023-06-14T12:14:11;101158.00;;;23.70
5571;BMP180;2808;51.240;6.794;2023-06-14T12:16:49;101167.00;;;23.80
5571;BMP180;2808;51.240;6.794;2023-06-14T12:19:41;101170.00;;;23.80
5571;BMP180;2808;51.240;6.794;2023-06-14T12:23:05;101160.00;;;23.60
5571;BMP180;2808;51.240;6.794;2023-06-14T12:25:28;101163.00;;;23.50
5571;BMP180;2808;51.240;6.794;2023-06-14T12:28:05;101169.00;;;23.50
5571;BMP180;2808;51.240;6.794;2023-06-14T12:30:55;101160.00;;;23.50
5571;BMP180;2808;51.240;6.794;2023-06-14T12:33:25;101172.00;;;23.60
5571;BMP180;2808;51.240;6.794;2023-06-14T12:35:58;101160.00;;;23.80
5571;BMP180;2808;51.240;6.794;2023-06-14T12:38:28;101162.00;;;23.80
5571;BMP180;2808;51.240;6.794;2023-06-14T12:40:55;101169.00;;;23.80
5571;BMP180;2808;51.240;6.794;2023-06-14T12:43:23;101165.00;;;23.70
5571;BMP180;2808;51.240;6.794;2023-06-14T12:45:52;101161.00;;;23.70
5571;BMP180;2808;51.240;6.794;2023-06-14T12:48:20;101169.00;;;23.70
5571;BMP180;2808;51.240;6.794;2023-06-14T12:50:48;101171.00;;;23.70
5571;BMP180;2808;51.240;6.794;2023-06-14T12:53:32;101157.00;;;23.60
5571;BMP180;2808;51.240;6.794;2023-06-14T12:56:07;101165.00;;;23.70
5571;BMP180;2808;51.240;6.794;2023-06-14T12:58:36;101164.00;;;23.70
5571;BMP180;2808;51.240;6.794;2023-06-14T13:04:33;101162.00;;;23.90
5571;BMP180;2808;51.240;6.794;2023-06-14T13:07:00;101176.00;;;24.10
5571;BMP180;2808;51.240;6.794;2023-06-14T13:09:31;101163.00;;;24.00
5571;BMP180;2808;51.240;6.794;2023-06-14T13:12:02;101154.00;;;24.00
5571;BMP180;2808;51.240;6.794;2023-06-14T13:30:02;101158.00;;;24.20
5571;BMP180;2808;51.240;6.794;2023-06-14T13:32:50;101154.00;;;24.30
5571;BMP180;2808;51.240;6.794;2023-06-14T13:35:19;101152.00;;;24.30
5571;BMP180;2808;51.240;6.794;2023-06-14T13:37:56;101162.00;;;24.40
5571;BMP180;2808;51.240;6.794;2023-06-14T13:40:41;101159.00;;;24.10
5571;BMP180;2808;51.240;6.794;2023-06-14T13:43:23;101159.00;;;24.10
5571;BMP180;2808;51.240;6.794;2023-06-14T13:45:51;101141.00;;;24.00
5571;BMP180;2808;51.240;6.794;2023-06-14T13:48:19;101147.00;;;24.10
5571;BMP180;2808;51.240;6.794;2023-06-14T13:50:46;101152.00;;;24.20
5571;BMP180;2808;51.240;6.794;2023-06-14T13:53:21;101158.00;;;24.30
5571;BMP180;2808;51.240;6.794;2023-06-14T13:55:57;101158.00;;;24.30
5571;BMP180;2808;51.240;6.794;2023-06-14T13:58:26;101165.00;;;24.30
5571;BMP180;2808;51.240;6.794;2023-06-14T14:01:09;101152.00;;;24.10
5571;BMP180;2808;51.240;6.794;2023-06-14T14:08:07;101142.00;;;24.20
5571;BMP180;2808;51.240;6.794;2023-06-14T14:10:35;101148.00;;;24.30
5571;BMP180;2808;51.240;6.794;2023-06-14T14:13:03;101149.00;;;24.10
5571;BMP180;2808;51.240;6.794;2023-06-14T14:15:30;101142.00;;;24.10
5571;BMP180;2808;51.240;6.794;2023-06-14T14:18:05;101154.00;;;24.10
5571;BMP180;2808;51.240;6.794;2023-06-14T14:20:37;101146.00;;;24.10
5571;BMP180;2808;51.240;6.794;2023-06-14T14:23:11;101137.00;;;24.20
5571;BMP180;2808;51.240;6.794;2023-06-14T14:26:15;101146.00;;;24.10
5571;BMP180;2808;51.240;6.794;2023-06-14T14:28:57;101138.00;;;24.10
5571;BMP180;2808;51.240;6.794;2023-06-14T14:31:27;101140.00;;;24.10
5571;BMP180;2808;51.240;6.794;2023-06-14T14:33:58;101114.00;;;24.20
5571;BMP180;2808;51.240;6.794;2023-06-14T14:39:41;101148.00;;;24.20
5571;BMP180;2808;51.240;6.794;2023-06-14T14:42:48;101165.00;;;24.20
5571;BMP180;2808;51.240;6.794;2023-06-14T16:11:04;101146.00;;;24.20
5571;BMP180;2808;51.240;6.794;2023-06-14T16:27:08;101150.00;;;24.10
5571;BMP180;2808;51.240;6.794;2023-06-14T16:29:52;101153.00;;;24.20
5571;BMP180;2808;51.240;6.794;2023-06-14T16:32:25;101141.00;;;24.10
5571;BMP180;2808;51.240;6.794;2023-06-14T16:34:55;101158.00;;;24.10
5571;BMP180;2808;51.240;6.794;2023-06-14T16:37:23;101151.00;;;24.10
5571;BMP180;2808;51.240;6.794;2023-06-14T16:39:50;101149.00;;;24.10
5571;BMP180;2808;51.240;6.794;2023-06-14T16:42:20;101153.00;;;24.10
5571;BMP180;2808;51.240;6.794;2023-06-14T16:44:49;101146.00;;;24.10
5571;BMP180;2808;51.240;6.794;2023-06-14T16:47:20;101162.00;;;24.20
5571;BMP180;2808;51.240;6.794;2023-06-14T16:49:49;101152.00;;;24.10
5571;BMP180;2808;51.240;6.794;2023-06-14T16:52:19;101155.00;;;24.10
5571;BMP180;2808;51.240;6.794;2023-06-14T16:54:47;101153.00;;;24.10
5571;BMP180;2808;51.240;6.794;2023-06-14T16:57:14;101157.00;;;24.10
5571;BMP180;2808;51.240;6.794;2023-06-14T16:59:45;101158.00;;;24.10
5571;BMP180;2808;51.240;6.794;2023-06-14T17:02:13;101173.00;;;24.00
5571;BMP180;2808;51.240;6.794;2023-06-14T17:04:40;101170.00;;;24.00
5571;BMP180;2808;51.240;6.794;2023-06-14T17:07:09;101168.00;;;24.00
5571;BMP180;2808;51.240;6.794;2023-06-14T17:09:37;101179.00;;;23.90
5571;BMP180;2808;51.240;6.794;2023-06-14T17:12:09;101187.00;;;23.80
5571;BMP180;2808;51.240;6.794;2023-06-14T17:14:40;101185.00;;;23.90
5571;BMP180;2808;51.240;6.794;2023-06-14T17:17:44;101180.00;;;23.90
5571;BMP180;2808;51.240;6.794;2023-06-14T17:21:00;101178.00;;;23.90
5571;BMP180;2808;51.240;6.794;2023-06-14T17:24:08;101177.00;;;23.80
5571;BMP180;2808;51.240;6.794;2023-06-14T17:30:08;101186.00;;;23.80
5571;BMP180;2808;51.240;6.794;2023-06-14T17:40:09;101193.00;;;23.70
5571;BMP180;2808;51.240;6.794;2023-06-14T18:01:02;101207.00;;;23.60
5571;BMP180;2808;51.240;6.794;2023-06-14T22:19:16;101350.00;;;20.00
5571;BMP180;2808;51.240;6.794;2023-06-14T22:21:48;101350.00;;;20.00
5571;BMP180;2808;51.240;6.794;2023-06-14T22:24:56;101340.00;;;20.00
5571;BMP180;2808;51.240;6.794;2023-06-14T22:27:55;101350.00;;;20.00
5571;BMP180;2808;51.240;6.794;2023-06-14T22:30:28;101348.00;;;20.00
5571;BMP180;2808;51.240;6.794;2023-06-14T22:33:07;101355.00;;;20.00
5571;BMP180;2808;51.240;6.794;2023-06-14T22:35:56;101349.00;;;20.00
5571;BMP180;2808;51.240;6.794;2023-06-14T22:38:43;101358.00;;;20.00
